sensor_id;sensor_type;location;lat;lon;timestamp;pressure;altitude;pressure_sealevel;temperature;humidity
56042;BME280;48756;41.374;2.066;2023-04-28T00:02:10;101157.44;;;18.29;83.71
56042;BME280;48756;41.374;2.066;2023-04-28T00:04:35;101153.69;;;18.36;83.03
56042;BME280;48756;41.374;2.066;2023-04-28T00:07:01;101154.66;;;18.33;82.85
56042;BME280;48756;41.374;2.066;2023-04-28T00:09:26;101153.56;;;18.14;81.90
56042;BME280;48756;41.374;2.066;2023-04-28T00:11:52;101156.78;;;18.22;82.25
56042;BME280;48756;41.374;2.066;2023-04-28T00:14:17;101159.19;;;18.28;82.79
56042;BME280;48756;41.374;2.066;2023-04-28T00:16:43;101153.75;;;18.33;82.51
56042;BME280;48756;41.374;2.066;2023-04-28T00:19:08;101151.13;;;18.33;82.10
56042;BME280;48756;41.374;2.066;2023-04-28T00:21:34;101149.25;;;18.36;81.17
56042;BME280;48756;41.374;2.066;2023-04-28T00:23:59;101145.38;;;18.22;84.65
56042;BME280;48756;41.374;2.066;2023-04-28T00:26:25;101140.25;;;18.42;83.58
56042;BME280;48756;41.374;2.066;2023-04-28T00:28:50;101144.97;;;18.32;83.80
56042;BME280;48756;41.374;2.066;2023-04-28T00:31:16;101153.63;;;18.38;84.10
56042;BME280;48756;41.374;2.066;2023-04-28T00:33:41;101146.34;;;18.19;83.22
56042;BME280;48756;41.374;2.066;2023-04-28T00:36:07;101146.06;;;18.27;81.84
56042;BME280;48756;41.374;2.066;2023-04-28T00:38:33;101155.94;;;18.22;81.49
56042;BME280;48756;41.374;2.066;2023-04-28T00:40:58;101148.34;;;18.13;81.82
56042;BME280;48756;41.374;2.066;2023-04-28T00:43:24;101142.34;;;18.08;81.90
56042;BME280;48756;41.374;2.066;2023-04-28T00:45:50;101147.03;;;18.24;81.01
56042;BME280;48756;41.374;2.066;2023-04-28T00:48:16;101148.75;;;18.00;81.35
56042;BME280;48756;41.374;2.066;2023-04-28T00:50:41;101151.06;;;18.10;80.98
56042;BME280;48756;41.374;2.066;2023-04-28T00:53:07;101145.38;;;18.22;79.71
56042;BME280;48756;41.374;2.066;2023-04-28T00:55:34;101149.50;;;18.29;79.81
56042;BME280;48756;41.374;2.066;2023-04-28T00:58:00;101143.59;;;18.22;80.77
56042;BME280;48756;41.374;2.066;2023-04-28T01:00:26;101142.09;;;18.15;81.93
56042;BME280;48756;41.374;2.066;2023-04-28T01:02:52;101141.97;;;17.93;82.41
56042;BME280;48756;41.374;2.066;2023-04-28T01:05:17;101143.56;;;17.97;83.04
56042;BME280;48756;41.374;2.066;2023-04-28T01:07:43;101137.50;;;17.95;83.85
56042;BME280;48756;41.374;2.066;2023-04-28T01:10:09;101134.75;;;17.98;82.05
56042;BME280;48756;41.374;2.066;2023-04-28T01:12:34;101131.09;;;18.02;81.21
56042;BME280;48756;41.374;2.066;2023-04-28T01:15:00;101137.00;;;18.09;80.50
56042;BME280;48756;41.374;2.066;2023-04-28T01:17:25;101137.47;;;18.22;79.67
56042;BME280;48756;41.374;2.066;2023-04-28T01:19:51;101143.13;;;18.11;80.46
56042;BME280;48756;41.374;2.066;2023-04-28T01:22:17;101138.94;;;18.04;80.92
56042;BME280;48756;41.374;2.066;2023-04-28T01:24:42;101137.66;;;17.91;80.30
56042;BME280;48756;41.374;2.066;2023-04-28T01:27:08;101139.56;;;17.86;81.45
56042;BME280;48756;41.374;2.066;2023-04-28T01:29:33;101135.19;;;17.85;81.61
56042;BME280;48756;41.374;2.066;2023-04-28T01:31:59;101145.78;;;17.83;80.23
56042;BME280;48756;41.374;2.066;2023-04-28T01:34:25;101141.91;;;17.67;81.92
56042;BME280;48756;41.374;2.066;2023-04-28T01:36:50;101136.66;;;17.67;80.36
56042;BME280;48756;41.374;2.066;2023-04-28T01:39:16;101134.81;;;17.70;78.26
56042;BME280;48756;41.374;2.066;2023-04-28T01:41:41;101134.81;;;17.70;77.22
56042;BME280;48756;41.374;2.066;2023-04-28T01:44:07;101136.97;;;17.28;77.95
56042;BME280;48756;41.374;2.066;2023-04-28T01:46:33;101139.56;;;17.30;78.32
56042;BME280;48756;41.374;2.066;2023-04-28T01:48:58;101134.19;;;17.61;77.45
56042;BME280;48756;41.374;2.066;2023-04-28T01:51:25;101134.59;;;17.77;76.67
56042;BME280;48756;41.374;2.066;2023-04-28T01:53:51;101130.63;;;17.62;77.35
56042;BME280;48756;41.374;2.066;2023-04-28T01:56:17;101134.69;;;17.73;76.19
56042;BME280;48756;41.374;2.066;2023-04-28T01:58:42;101138.25;;;17.72;76.33
56042;BME280;48756;41.374;2.066;2023-04-28T02:01:07;101133.16;;;17.65;76.42
56042;BME280;48756;41.374;2.066;2023-04-28T02:03:33;101137.59;;;17.64;77.53
56042;BME280;48756;41.374;2.066;2023-04-28T02:05:59;101135.50;;;17.48;77.83
56042;BME280;48756;41.374;2.066;2023-04-28T02:08:24;101143.63;;;17.40;78.44
56042;BME280;48756;41.374;2.066;2023-04-28T02:10:50;101135.81;;;17.37;79.01
56042;BME280;48756;41.374;2.066;2023-04-28T02:13:15;101143.88;;;17.60;77.49
56042;BME280;48756;41.374;2.066;2023-04-28T02:15:41;101135.97;;;17.60;76.57
56042;BME280;48756;41.374;2.066;2023-04-28T02:18:07;101133.03;;;17.41;75.13
56042;BME280;48756;41.374;2.066;2023-04-28T02:20:32;101146.59;;;17.29;74.94
56042;BME280;48756;41.374;2.066;2023-04-28T02:22:58;101144.84;;;17.30;72.77
56042;BME280;48756;41.374;2.066;2023-04-28T02:25:23;101139.72;;;17.25;74.37
56042;BME280;48756;41.374;2.066;2023-04-28T02:27:49;101145.59;;;17.33;74.76
56042;BME280;48756;41.374;2.066;2023-04-28T02:30:14;101143.13;;;17.29;74.72
56042;BME280;48756;41.374;2.066;2023-04-28T02:32:40;101144.28;;;17.19;73.45
56042;BME280;48756;41.374;2.066;2023-04-28T02:35:06;101141.50;;;17.25;72.44
56042;BME280;48756;41.374;2.066;2023-04-28T02:37:31;101136.22;;;17.25;71.34
56042;BME280;48756;41.374;2.066;2023-04-28T02:39:57;101146.19;;;17.13;73.04
56042;BME280;48756;41.374;2.066;2023-04-28T02:42:22;101144.66;;;17.06;72.95
56042;BME280;48756;41.374;2.066;2023-04-28T02:44:48;101135.34;;;17.24;71.19
56042;BME280;48756;41.374;2.066;2023-04-28T02:47:13;101139.16;;;17.42;70.72
56042;BME280;48756;41.374;2.066;2023-04-28T02:49:39;101142.88;;;17.36;72.00
56042;BME280;48756;41.374;2.066;2023-04-28T02:52:04;101134.91;;;17.38;72.31
56042;BME280;48756;41.374;2.066;2023-04-28T02:54:30;101143.78;;;17.35;73.79
56042;BME280;48756;41.374;2.066;2023-04-28T02:56:58;101151.69;;;17.35;74.51
56042;BME280;48756;41.374;2.066;2023-04-28T02:59:23;101132.28;;;17.38;74.48
56042;BME280;48756;41.374;2.066;2023-04-28T03:01:49;101142.25;;;17.28;74.64
56042;BME280;48756;41.374;2.066;2023-04-28T03:04:15;101131.63;;;17.31;74.16
56042;BME280;48756;41.374;2.066;2023-04-28T03:06:41;101132.22;;;17.11;71.23
56042;BME280;48756;41.374;2.066;2023-04-28T03:09:07;101134.44;;;17.25;69.45
56042;BME280;48756;41.374;2.066;2023-04-28T03:11:33;101135.81;;;17.09;70.20
56042;BME280;48756;41.374;2.066;2023-04-28T03:13:58;101138.25;;;17.15;70.49
56042;BME280;48756;41.374;2.066;2023-04-28T03:16:24;101131.88;;;17.24;70.79
56042;BME280;48756;41.374;2.066;2023-04-28T03:18:50;101129.50;;;17.14;71.35
56042;BME280;48756;41.374;2.066;2023-04-28T03:21:16;101123.00;;;17.26;71.41
56042;BME280;48756;41.374;2.066;2023-04-28T03:23:42;101123.09;;;17.23;72.46
56042;BME280;48756;41.374;2.066;2023-04-28T03:26:07;101123.97;;;17.24;72.23
56042;BME280;48756;41.374;2.066;2023-04-28T03:28:33;101120.50;;;17.22;71.71
56042;BME280;48756;41.374;2.066;2023-04-28T03:30:58;101117.03;;;17.20;73.41
56042;BME280;48756;41.374;2.066;2023-04-28T03:33:24;101119.78;;;17.17;73.10
56042;BME280;48756;41.374;2.066;2023-04-28T03:35:49;101115.31;;;17.19;71.80
56042;BME280;48756;41.374;2.066;2023-04-28T03:38:15;101120.31;;;17.00;72.60
56042;BME280;48756;41.374;2.066;2023-04-28T03:40:41;101126.09;;;16.81;73.03
56042;BME280;48756;41.374;2.066;2023-04-28T03:43:06;101124.81;;;16.95;71.67
56042;BME280;48756;41.374;2.066;2023-04-28T03:45:32;101126.75;;;17.18;71.51
56042;BME280;48756;41.374;2.066;2023-04-28T03:47:57;101114.44;;;17.18;71.29
56042;BME280;48756;41.374;2.066;2023-04-28T03:50:23;101112.97;;;17.09;71.51
56042;BME280;48756;41.374;2.066;2023-04-28T03:52:48;101108.66;;;17.07;72.02
56042;BME280;48756;41.374;2.066;2023-04-28T03:55:13;101100.25;;;16.94;72.73
56042;BME280;48756;41.374;2.066;2023-04-28T03:57:39;101100.91;;;17.02;72.19
56042;BME280;48756;41.374;2.066;2023-04-28T04:00:04;101104.41;;;17.03;72.46
56042;BME280;48756;41.374;2.066;2023-04-28T04:02:30;101103.97;;;17.17;72.02
56042;BME280;48756;41.374;2.066;2023-04-28T04:04:55;101110.91;;;17.19;71.79
56042;BME280;48756;41.374;2.066;2023-04-28T04:07:21;101109.88;;;17.25;72.32
56042;BME280;48756;41.374;2.066;2023-04-28T04:09:47;101115.47;;;17.14;72.94
56042;BME280;48756;41.374;2.066;2023-04-28T04:12:13;101126.91;;;17.13;72.48
56042;BME280;48756;41.374;2.066;2023-04-28T04:14:38;101121.84;;;17.07;72.84
56042;BME280;48756;41.374;2.066;2023-04-28T04:17:03;101124.69;;;16.99;73.20
56042;BME280;48756;41.374;2.066;2023-04-28T04:19:29;101122.13;;;16.96;73.73
56042;BME280;48756;41.374;2.066;2023-04-28T04:21:54;101121.22;;;16.97;74.33
56042;BME280;48756;41.374;2.066;2023-04-28T04:24:20;101116.47;;;16.80;74.82
56042;BME280;48756;41.374;2.066;2023-04-28T04:26:46;101114.38;;;16.92;75.61
56042;BME280;48756;41.374;2.066;2023-04-28T04:29:11;101105.72;;;16.88;75.08
56042;BME280;48756;41.374;2.066;2023-04-28T04:31:37;101112.41;;;16.69;75.75
56042;BME280;48756;41.374;2.066;2023-04-28T04:34:02;101112.91;;;16.83;74.85
56042;BME280;48756;41.374;2.066;2023-04-28T04:36:28;101117.28;;;16.19;76.23
56042;BME280;48756;41.374;2.066;2023-04-28T04:38:54;101114.22;;;16.67;76.01
56042;BME280;48756;41.374;2.066;2023-04-28T04:41:19;101111.06;;;16.85;74.71
56042;BME280;48756;41.374;2.066;2023-04-28T04:43:45;101115.00;;;17.01;74.52
56042;BME280;48756;41.374;2.066;2023-04-28T04:46:10;101112.41;;;17.00;75.07
56042;BME280;48756;41.374;2.066;2023-04-28T04:48:36;101122.28;;;16.92;74.91
56042;BME280;48756;41.374;2.066;2023-04-28T04:51:01;101124.28;;;16.83;75.12
56042;BME280;48756;41.374;2.066;2023-04-28T04:53:27;101130.38;;;16.53;75.34
56042;BME280;48756;41.374;2.066;2023-04-28T04:55:55;101133.00;;;16.20;78.87
56042;BME280;48756;41.374;2.066;2023-04-28T04:58:21;101131.94;;;16.28;76.38
56042;BME280;48756;41.374;2.066;2023-04-28T05:00:46;101125.66;;;16.33;76.67
56042;BME280;48756;41.374;2.066;2023-04-28T05:03:12;101130.34;;;16.54;76.02
56042;BME280;48756;41.374;2.066;2023-04-28T05:05:37;101134.84;;;16.49;76.74
56042;BME280;48756;41.374;2.066;2023-04-28T05:08:03;101134.75;;;16.54;75.54
56042;BME280;48756;41.374;2.066;2023-04-28T05:10:29;101130.41;;;16.51;76.98
56042;BME280;48756;41.374;2.066;2023-04-28T05:12:55;101127.88;;;16.48;76.09
56042;BME280;48756;41.374;2.066;2023-04-28T05:15:20;101132.56;;;16.70;76.83
56042;BME280;48756;41.374;2.066;2023-04-28T05:17:46;101132.00;;;16.90;75.77
56042;BME280;48756;41.374;2.066;2023-04-28T05:20:11;101136.91;;;17.02;75.54
56042;BME280;48756;41.374;2.066;2023-04-28T05:22:37;101139.88;;;17.19;74.82
56042;BME280;48756;41.374;2.066;2023-04-28T05:25:02;101143.56;;;17.13;74.61
56042;BME280;48756;41.374;2.066;2023-04-28T05:27:28;101147.16;;;16.81;75.94
56042;BME280;48756;41.374;2.066;2023-04-28T05:29:54;101147.25;;;16.78;76.32
56042;BME280;48756;41.374;2.066;2023-04-28T05:32:20;101145.09;;;16.91;76.23
56042;BME280;48756;41.374;2.066;2023-04-28T05:34:46;101149.09;;;16.75;76.41
56042;BME280;48756;41.374;2.066;2023-04-28T05:37:11;101147.13;;;16.49;76.94
56042;BME280;48756;41.374;2.066;2023-04-28T05:39:37;101154.47;;;16.70;77.34
56042;BME280;48756;41.374;2.066;2023-04-28T05:42:02;101150.06;;;17.02;75.14
56042;BME280;48756;41.374;2.066;2023-04-28T05:44:28;101156.41;;;16.95;74.76
56042;BME280;48756;41.374;2.066;2023-04-28T05:46:54;101156.50;;;16.92;74.61
56042;BME280;48756;41.374;2.066;2023-04-28T05:49:19;101160.91;;;16.91;75.60
56042;BME280;48756;41.374;2.066;2023-04-28T05:51:44;101159.50;;;16.79;75.34
56042;BME280;48756;41.374;2.066;2023-04-28T05:54:10;101163.38;;;17.27;74.05
56042;BME280;48756;41.374;2.066;2023-04-28T05:56:35;101162.00;;;17.13;73.89
56042;BME280;48756;41.374;2.066;2023-04-28T05:59:01;101166.72;;;17.32;73.48
56042;BME280;48756;41.374;2.066;2023-04-28T06:01:29;101163.44;;;16.94;74.37
56042;BME280;48756;41.374;2.066;2023-04-28T06:03:54;101166.22;;;17.19;73.69
56042;BME280;48756;41.374;2.066;2023-04-28T06:06:22;101167.34;;;17.10;73.33
56042;BME280;48756;41.374;2.066;2023-04-28T06:08:47;101163.63;;;17.47;72.34
56042;BME280;48756;41.374;2.066;2023-04-28T06:11:12;101168.09;;;17.45;72.70
56042;BME280;48756;41.374;2.066;2023-04-28T06:13:38;101164.09;;;17.32;71.92
56042;BME280;48756;41.374;2.066;2023-04-28T06:16:03;101158.97;;;17.27;71.39
56042;BME280;48756;41.374;2.066;2023-04-28T06:18:29;101162.97;;;17.68;70.19
56042;BME280;48756;41.374;2.066;2023-04-28T06:20:56;101174.56;;;17.91;70.11
56042;BME280;48756;41.374;2.066;2023-04-28T06:23:22;101161.13;;;17.98;68.03
56042;BME280;48756;41.374;2.066;2023-04-28T06:25:47;101164.59;;;18.25;66.79
56042;BME280;48756;41.374;2.066;2023-04-28T06:28:13;101167.84;;;18.07;66.16
56042;BME280;48756;41.374;2.066;2023-04-28T06:30:39;101166.75;;;18.14;65.80
56042;BME280;48756;41.374;2.066;2023-04-28T06:33:04;101169.06;;;18.48;65.36
56042;BME280;48756;41.374;2.066;2023-04-28T06:35:29;101170.38;;;18.86;63.09
56042;BME280;48756;41.374;2.066;2023-04-28T06:37:55;101169.69;;;18.55;62.45
56042;BME280;48756;41.374;2.066;2023-04-28T06:40:20;101157.88;;;18.66;62.59
56042;BME280;48756;41.374;2.066;2023-04-28T06:42:46;101157.47;;;19.02;61.17
56042;BME280;48756;41.374;2.066;2023-04-28T06:45:11;101157.69;;;18.96;61.63
56042;BME280;48756;41.374;2.066;2023-04-28T06:47:37;101157.22;;;19.32;60.86
56042;BME280;48756;41.374;2.066;2023-04-28T06:50:04;101166.69;;;19.14;59.88
56042;BME280;48756;41.374;2.066;2023-04-28T06:52:30;101165.41;;;19.47;59.85
56042;BME280;48756;41.374;2.066;2023-04-28T06:54:55;101168.75;;;19.29;58.94
56042;BME280;48756;41.374;2.066;2023-04-28T06:57:20;101165.72;;;19.62;59.13
56042;BME280;48756;41.374;2.066;2023-04-28T06:59:46;101167.97;;;19.72;58.01
56042;BME280;48756;41.374;2.066;2023-04-28T07:02:14;101168.75;;;19.74;57.49
56042;BME280;48756;41.374;2.066;2023-04-28T07:04:40;101171.94;;;19.82;58.16
56042;BME280;48756;41.374;2.066;2023-04-28T07:07:18;101183.88;;;19.71;57.36
56042;BME280;48756;41.374;2.066;2023-04-28T07:09:43;101170.09;;;19.63;58.29
56042;BME280;48756;41.374;2.066;2023-04-28T07:12:09;101171.94;;;19.82;57.09
56042;BME280;48756;41.374;2.066;2023-04-28T07:14:34;101178.03;;;19.63;58.23
56042;BME280;48756;41.374;2.066;2023-04-28T07:17:02;101178.88;;;19.85;57.67
56042;BME280;48756;41.374;2.066;2023-04-28T07:19:27;101171.00;;;20.05;55.97
56042;BME280;48756;41.374;2.066;2023-04-28T07:21:52;101175.44;;;20.25;55.49
56042;BME280;48756;41.374;2.066;2023-04-28T07:24:18;101178.72;;;20.72;54.01
56042;BME280;48756;41.374;2.066;2023-04-28T07:26:43;101182.34;;;21.09;54.12
56042;BME280;48756;41.374;2.066;2023-04-28T07:29:09;101182.22;;;21.12;53.51
56042;BME280;48756;41.374;2.066;2023-04-28T07:31:37;101187.72;;;21.07;53.67
56042;BME280;48756;41.374;2.066;2023-04-28T07:34:04;101184.78;;;21.14;53.71
56042;BME280;48756;41.374;2.066;2023-04-28T07:36:29;101182.00;;;21.17;54.44
56042;BME280;48756;41.374;2.066;2023-04-28T07:38:56;101180.06;;;21.58;53.01
56042;BME280;48756;41.374;2.066;2023-04-28T07:41:21;101180.56;;;21.66;51.94
56042;BME280;48756;41.374;2.066;2023-04-28T07:43:48;101184.22;;;21.99;51.21
56042;BME280;48756;41.374;2.066;2023-04-28T07:46:13;101181.31;;;22.23;50.37
56042;BME280;48756;41.374;2.066;2023-04-28T07:48:38;101197.22;;;22.40;49.69
56042;BME280;48756;41.374;2.066;2023-04-28T07:51:04;101197.63;;;22.50;49.67
56042;BME280;48756;41.374;2.066;2023-04-28T07:53:29;101202.84;;;22.34;49.96
56042;BME280;48756;41.374;2.066;2023-04-28T07:55:55;101202.06;;;22.67;48.88
56042;BME280;48756;41.374;2.066;2023-04-28T07:58:20;101212.38;;;22.55;48.83
56042;BME280;48756;41.374;2.066;2023-04-28T08:00:46;101212.03;;;22.79;48.34
56042;BME280;48756;41.374;2.066;2023-04-28T08:03:11;101210.16;;;22.81;48.01
56042;BME280;48756;41.374;2.066;2023-04-28T08:05:38;101206.72;;;22.96;47.44
56042;BME280;48756;41.374;2.066;2023-04-28T08:08:03;101205.16;;;23.41;46.42
56042;BME280;48756;41.374;2.066;2023-04-28T08:10:29;101210.56;;;23.55;45.80
56042;BME280;48756;41.374;2.066;2023-04-28T08:12:54;101205.63;;;23.65;45.85
56042;BME280;48756;41.374;2.066;2023-04-28T08:15:20;101201.13;;;23.49;45.80
56042;BME280;48756;41.374;2.066;2023-04-28T08:17:46;101203.00;;;23.95;45.43
56042;BME280;48756;41.374;2.066;2023-04-28T08:20:11;101201.81;;;23.85;44.91
56042;BME280;48756;41.374;2.066;2023-04-28T08:22:39;101199.16;;;23.85;44.04
56042;BME280;48756;41.374;2.066;2023-04-28T08:25:06;101196.00;;;24.24;42.89
56042;BME280;48756;41.374;2.066;2023-04-28T08:27:35;101200.16;;;23.98;43.93
56042;BME280;48756;41.374;2.066;2023-04-28T08:30:02;101210.31;;;24.21;43.56
56042;BME280;48756;41.374;2.066;2023-04-28T08:32:31;101204.97;;;24.67;42.19
56042;BME280;48756;41.374;2.066;2023-04-28T08:34:57;101200.84;;;24.61;42.62
56042;BME280;48756;41.374;2.066;2023-04-28T08:37:26;101202.13;;;24.70;41.55
56042;BME280;48756;41.374;2.066;2023-04-28T08:39:52;101204.97;;;24.81;41.76
56042;BME280;48756;41.374;2.066;2023-04-28T08:42:28;101204.56;;;24.59;40.81
56042;BME280;48756;41.374;2.066;2023-04-28T08:44:54;101198.72;;;25.25;40.58
56042;BME280;48756;41.374;2.066;2023-04-28T08:47:23;101197.38;;;25.03;40.45
56042;BME280;48756;41.374;2.066;2023-04-28T08:49:50;101187.78;;;25.56;40.19
56042;BME280;48756;41.374;2.066;2023-04-28T08:52:17;101188.41;;;25.33;39.43
56042;BME280;48756;41.374;2.066;2023-04-28T08:54:43;101190.16;;;25.20;39.81
56042;BME280;48756;41.374;2.066;2023-04-28T08:57:08;101192.56;;;25.51;39.91
56042;BME280;48756;41.374;2.066;2023-04-28T08:59:35;101187.16;;;26.07;39.18
56042;BME280;48756;41.374;2.066;2023-04-28T09:02:02;101182.03;;;26.16;37.90
56042;BME280;48756;41.374;2.066;2023-04-28T09:04:28;101182.47;;;26.10;38.88
56042;BME280;48756;41.374;2.066;2023-04-28T09:06:53;101181.06;;;26.70;38.20
56042;BME280;48756;41.374;2.066;2023-04-28T09:09:19;101185.66;;;27.19;36.73
56042;BME280;48756;41.374;2.066;2023-04-28T09:14:20;101197.75;;;25.81;37.76
56042;BME280;48756;41.374;2.066;2023-04-28T09:16:46;101196.56;;;26.65;37.47
56042;BME280;48756;41.374;2.066;2023-04-28T09:19:11;101190.72;;;26.72;37.56
56042;BME280;48756;41.374;2.066;2023-04-28T09:24:24;101180.97;;;26.59;37.34
56042;BME280;48756;41.374;2.066;2023-04-28T09:26:49;101173.34;;;26.40;37.89
56042;BME280;48756;41.374;2.066;2023-04-28T09:29:15;101171.78;;;26.50;41.02
56042;BME280;48756;41.374;2.066;2023-04-28T09:31:40;101170.19;;;26.73;41.75
56042;BME280;48756;41.374;2.066;2023-04-28T09:34:07;101169.41;;;26.96;42.36
56042;BME280;48756;41.374;2.066;2023-04-28T09:36:33;101169.59;;;26.93;43.00
56042;BME280;48756;41.374;2.066;2023-04-28T09:38:58;101164.47;;;26.90;44.46
56042;BME280;48756;41.374;2.066;2023-04-28T09:44:17;101172.41;;;27.17;44.62
56042;BME280;48756;41.374;2.066;2023-04-28T09:46:45;101171.69;;;27.75;43.90
56042;BME280;48756;41.374;2.066;2023-04-28T09:49:11;101180.88;;;27.48;43.83
56042;BME280;48756;41.374;2.066;2023-04-28T09:51:37;101191.38;;;27.38;44.64
56042;BME280;48756;41.374;2.066;2023-04-28T09:54:03;101191.59;;;27.35;43.98
56042;BME280;48756;41.374;2.066;2023-04-28T09:56:29;101187.25;;;27.70;42.85
56042;BME280;48756;41.374;2.066;2023-04-28T09:58:58;101194.13;;;27.49;42.63
56042;BME280;48756;41.374;2.066;2023-04-28T10:01:24;101185.06;;;27.75;41.02
56042;BME280;48756;41.374;2.066;2023-04-28T10:03:51;101180.09;;;26.96;41.69
56042;BME280;48756;41.374;2.066;2023-04-28T10:06:18;101182.28;;;27.40;41.21
56042;BME280;48756;41.374;2.066;2023-04-28T10:08:44;101180.88;;;27.35;41.39
56042;BME280;48756;41.374;2.066;2023-04-28T10:11:13;101187.97;;;27.72;40.38
56042;BME280;48756;41.374;2.066;2023-04-28T10:13:40;101181.97;;;28.17;39.41
56042;BME280;48756;41.374;2.066;2023-04-28T10:16:06;101184.97;;;28.36;39.03
56042;BME280;48756;41.374;2.066;2023-04-28T10:18:32;101184.88;;;28.49;38.91
56042;BME280;48756;41.374;2.066;2023-04-28T10:20:59;101182.53;;;28.33;38.18
56042;BME280;48756;41.374;2.066;2023-04-28T10:25:59;101185.03;;;28.81;38.39
56042;BME280;48756;41.374;2.066;2023-04-28T10:28:25;101190.03;;;28.74;39.21
56042;BME280;48756;41.374;2.066;2023-04-28T10:31:10;101190.22;;;28.14;41.05
56042;BME280;48756;41.374;2.066;2023-04-28T10:33:36;101184.38;;;28.44;39.76
56042;BME280;48756;41.374;2.066;2023-04-28T10:36:02;101183.06;;;28.60;39.47
56042;BME280;48756;41.374;2.066;2023-04-28T10:38:28;101177.41;;;28.30;38.96
56042;BME280;48756;41.374;2.066;2023-04-28T10:40:53;101194.25;;;27.48;40.51
56042;BME280;48756;41.374;2.066;2023-04-28T10:48:16;101174.88;;;28.51;39.96
56042;BME280;48756;41.374;2.066;2023-04-28T10:56:13;101177.34;;;28.65;37.73
56042;BME280;48756;41.374;2.066;2023-04-28T10:58:43;101167.47;;;28.65;38.25
56042;BME280;48756;41.374;2.066;2023-04-28T11:06:17;101172.25;;;29.29;35.78
56042;BME280;48756;41.374;2.066;2023-04-28T11:08:49;101170.25;;;28.42;37.28
56042;BME280;48756;41.374;2.066;2023-04-28T11:11:16;101163.88;;;29.00;36.78
56042;BME280;48756;41.374;2.066;2023-04-28T11:13:42;101158.84;;;28.84;37.15
56042;BME280;48756;41.374;2.066;2023-04-28T11:16:07;101159.81;;;28.94;36.72
56042;BME280;48756;41.374;2.066;2023-04-28T11:21:19;101159.75;;;28.39;37.01
56042;BME280;48756;41.374;2.066;2023-04-28T11:23:44;101157.63;;;28.77;36.43
56042;BME280;48756;41.374;2.066;2023-04-28T11:26:10;101158.09;;;28.71;37.35
56042;BME280;48756;41.374;2.066;2023-04-28T11:28:36;101152.84;;;28.58;36.75
56042;BME280;48756;41.374;2.066;2023-04-28T11:31:11;101146.56;;;28.00;37.38
56042;BME280;48756;41.374;2.066;2023-04-28T11:33:36;101136.16;;;28.66;36.77
56042;BME280;48756;41.374;2.066;2023-04-28T11:36:03;101136.16;;;28.66;37.23
56042;BME280;48756;41.374;2.066;2023-04-28T11:38:28;101129.41;;;28.38;37.04
56042;BME280;48756;41.374;2.066;2023-04-28T11:40:57;101128.72;;;28.81;36.81
56042;BME280;48756;41.374;2.066;2023-04-28T11:43:29;101127.13;;;29.12;35.33
56042;BME280;48756;41.374;2.066;2023-04-28T11:45:55;101123.78;;;29.53;34.44
56042;BME280;48756;41.374;2.066;2023-04-28T11:48:21;101114.75;;;29.54;34.40
56042;BME280;48756;41.374;2.066;2023-04-28T11:50:46;101115.53;;;29.98;34.52
56042;BME280;48756;41.374;2.066;2023-04-28T11:53:12;101118.97;;;29.68;34.82
56042;BME280;48756;41.374;2.066;2023-04-28T11:55:37;101119.63;;;29.81;33.83
56042;BME280;48756;41.374;2.066;2023-04-28T11:58:21;101118.56;;;29.18;35.93
56042;BME280;48756;41.374;2.066;2023-04-28T12:01:10;101112.38;;;29.93;33.75
56042;BME280;48756;41.374;2.066;2023-04-28T12:03:45;101105.94;;;29.84;34.08
56042;BME280;48756;41.374;2.066;2023-04-28T12:06:11;101111.69;;;29.79;36.10
56042;BME280;48756;41.374;2.066;2023-04-28T12:08:36;101105.19;;;29.61;35.26
56042;BME280;48756;41.374;2.066;2023-04-28T12:11:08;101106.69;;;30.07;35.10
56042;BME280;48756;41.374;2.066;2023-04-28T12:13:35;101103.81;;;30.71;34.35
56042;BME280;48756;41.374;2.066;2023-04-28T12:16:04;101101.19;;;29.87;34.77
56042;BME280;48756;41.374;2.066;2023-04-28T12:18:33;101098.16;;;30.02;35.03
56042;BME280;48756;41.374;2.066;2023-04-28T12:20:58;101098.31;;;30.21;35.42
56042;BME280;48756;41.374;2.066;2023-04-28T12:23:28;101105.72;;;30.08;34.27
56042;BME280;48756;41.374;2.066;2023-04-28T12:25:54;101097.56;;;29.45;35.83
56042;BME280;48756;41.374;2.066;2023-04-28T12:28:20;101092.03;;;30.11;33.53
56042;BME280;48756;41.374;2.066;2023-04-28T12:30:45;101092.31;;;29.76;34.41
56042;BME280;48756;41.374;2.066;2023-04-28T12:33:23;101087.13;;;30.16;34.32
56042;BME280;48756;41.374;2.066;2023-04-28T12:35:49;101095.56;;;29.58;34.60
56042;BME280;48756;41.374;2.066;2023-04-28T12:38:14;101091.44;;;29.43;36.21
56042;BME280;48756;41.374;2.066;2023-04-28T12:40:41;101091.44;;;29.43;36.36
56042;BME280;48756;41.374;2.066;2023-04-28T12:43:06;101089.25;;;29.48;35.63
56042;BME280;48756;41.374;2.066;2023-04-28T12:45:32;101094.97;;;29.01;36.67
56042;BME280;48756;41.374;2.066;2023-04-28T12:47:58;101090.66;;;29.84;35.60
56042;BME280;48756;41.374;2.066;2023-04-28T12:50:24;101096.94;;;30.27;34.36
56042;BME280;48756;41.374;2.066;2023-04-28T12:52:51;101098.72;;;30.47;34.44
56042;BME280;48756;41.374;2.066;2023-04-28T12:55:16;101087.97;;;29.84;35.05
56042;BME280;48756;41.374;2.066;2023-04-28T12:57:42;101094.03;;;29.45;36.42
56042;BME280;48756;41.374;2.066;2023-04-28T13:00:07;101085.66;;;30.33;34.58
56042;BME280;48756;41.374;2.066;2023-04-28T13:02:33;101088.69;;;30.18;34.16
56042;BME280;48756;41.374;2.066;2023-04-28T13:04:59;101081.84;;;29.18;35.35
56042;BME280;48756;41.374;2.066;2023-04-28T13:07:24;101080.03;;;29.19;34.63
56042;BME280;48756;41.374;2.066;2023-04-28T13:09:50;101081.81;;;28.86;35.94
56042;BME280;48756;41.374;2.066;2023-04-28T13:12:15;101074.22;;;29.78;34.81
56042;BME280;48756;41.374;2.066;2023-04-28T13:14:41;101084.34;;;30.06;33.82